Time;durP1;ratioP1;P1;durP2;ratioP2;P2;SDS_P1;SDS_P2;PMS_P1;PMS_P2;Temp;Humidity;BMP_temperature;BMP_pressure;BME280_temperature;BME280_humidity;BME280_pressure;Samples;Min_cycle;Max_cycle;Signal;HPM_P1;HPM_P2
2022/05/31 00:00:37;;;;;;;1.58;0.60;;;10.30;99.90;;;;;;5001447;28;20651;-44
2022/05/31 00:03:05;;;;;;;1.70;0.70;;;10.20;99.90;;;;;;5000878;28;20045;-46
2022/05/31 00:05:32;;;;;;;1.50;0.70;;;10.20;99.90;;;;;;5005528;28;20042;-48
2022/05/31 00:07:59;;;;;;;1.33;0.70;;;10.20;99.90;;;;;;4999699;28;20034;-44
2022/05/31 00:10:25;;;;;;;2.25;1.08;;;10.20;99.90;;;;;;5001869;28;20049;-48
2022/05/31 00:12:52;;;;;;;1.90;0.70;;;10.20;99.90;;;;;;5020031;28;20045;-46
2022/05/31 00:15:19;;;;;;;1.50;0.80;;;10.20;99.90;;;;;;4998933;28;20038;-51
2022/05/31 00:17:45;;;;;;;1.95;0.80;;;10.20;99.90;;;;;;5006762;28;20041;-48
2022/05/31 00:20:13;;;;;;;2.97;1.00;;;10.10;99.90;;;;;;5002573;28;20400;-47
2022/05/31 00:22:40;;;;;;;2.05;1.05;;;10.10;99.90;;;;;;5003408;28;20042;-48
2022/05/31 00:25:06;;;;;;;2.65;0.75;;;10.10;99.90;;;;;;5001579;28;20034;-48
2022/05/31 00:27:32;;;;;;;1.85;0.80;;;10.10;99.90;;;;;;5005762;28;20037;-44
2022/05/31 00:29:58;;;;;;;1.58;0.77;;;10.10;99.90;;;;;;5004233;28;20096;-50
2022/05/31 00:32:30;;;;;;;2.17;0.90;;;10.00;99.90;;;;;;4999507;28;20405;-48
2022/05/31 00:34:59;;;;;;;4.15;1.45;;;10.00;99.90;;;;;;5002746;28;20070;-42
2022/05/31 00:37:25;;;;;;;1.73;0.88;;;10.00;99.90;;;;;;4998936;28;20056;-46
2022/05/31 00:39:51;;;;;;;2.45;1.00;;;10.00;99.90;;;;;;5003869;28;20045;-46
2022/05/31 00:42:19;;;;;;;1.77;0.88;;;10.00;99.90;;;;;;5004558;28;20502;-47
2022/05/31 00:44:44;;;;;;;2.65;1.02;;;10.00;99.90;;;;;;5005921;28;20053;-50
2022/05/31 00:47:24;;;;;;;1.55;0.77;;;10.00;99.90;;;;;;5005418;28;20041;-49
2022/05/31 00:50:00;;;;;;;2.75;1.00;;;10.00;99.90;;;;;;5001087;28;20518;-43
2022/05/31 00:52:36;;;;;;;2.15;1.10;;;10.00;99.90;;;;;;5001155;28;20480;-47
2022/05/31 00:55:09;;;;;;;2.50;1.20;;;9.90;99.90;;;;;;5005506;28;20394;-50
2022/05/31 00:57:38;;;;;;;2.05;0.98;;;9.90;99.90;;;;;;4999363;28;20669;-48
2022/05/31 01:00:13;;;;;;;1.65;0.85;;;9.90;99.90;;;;;;5000852;28;20098;-46
2022/05/31 01:02:42;;;;;;;1.65;0.90;;;9.90;99.90;;;;;;5020979;28;20042;-46
2022/05/31 01:05:10;;;;;;;3.22;1.00;;;10.00;99.90;;;;;;5000296;28;20049;-46
2022/05/31 01:07:36;;;;;;;2.35;1.02;;;10.00;99.90;;;;;;5001501;28;20495;-47
2022/05/31 01:10:06;;;;;;;2.40;1.30;;;10.00;99.90;;;;;;4999005;28;20034;-47
2022/05/31 01:12:33;;;;;;;3.53;1.05;;;10.00;99.90;;;;;;5003129;28;20042;-44
2022/05/31 01:14:59;;;;;;;2.20;1.05;;;10.10;99.90;;;;;;5007154;28;20407;-46
2022/05/31 01:17:25;;;;;;;2.33;0.98;;;10.10;99.90;;;;;;5003896;28;20102;-51
2022/05/31 01:19:55;;;;;;;1.80;0.98;;;10.10;99.90;;;;;;5003858;28;20069;-50
2022/05/31 01:22:30;;;;;;;2.35;0.82;;;10.20;99.90;;;;;;5004802;28;20040;-49
2022/05/31 01:25:12;;;;;;;2.13;0.90;;;10.20;99.90;;;;;;4998830;28;20096;-50
2022/05/31 01:28:03;;;;;;;1.48;1.00;;;10.20;99.90;;;;;;5004419;28;20050;-46
2022/05/31 01:30:31;;;;;;;2.88;1.15;;;10.20;99.90;;;;;;5004884;28;20056;-41
2022/05/31 01:33:30;;;;;;;3.60;1.30;;;10.20;99.90;;;;;;5007811;28;20044;-44
2022/05/31 01:36:04;;;;;;;1.65;0.90;;;10.20;99.90;;;;;;5000798;28;20506;-49
2022/05/31 01:38:54;;;;;;;1.83;1.10;;;10.20;99.90;;;;;;5000484;28;20482;-47
2022/05/31 01:41:26;;;;;;;2.15;0.88;;;10.20;99.90;;;;;;5006399;28;20042;-41
2022/05/31 01:43:55;;;;;;;3.05;1.10;;;10.30;99.90;;;;;;5004092;28;20042;-50
2022/05/31 01:46:32;;;;;;;3.63;1.55;;;10.30;99.90;;;;;;5005566;28;20096;-49
2022/05/31 01:49:01;;;;;;;1.80;1.10;;;10.30;99.90;;;;;;5008893;28;20458;-46
2022/05/31 01:51:27;;;;;;;2.85;1.27;;;10.30;99.90;;;;;;4998429;28;20053;-50
2022/05/31 01:53:55;;;;;;;2.88;1.33;;;10.30;99.90;;;;;;4998701;28;20669;-46
2022/05/31 01:56:22;;;;;;;2.35;1.05;;;10.30;99.90;;;;;;5006408;28;20088;-43
2022/05/31 01:58:50;;;;;;;2.00;1.20;;;10.20;99.90;;;;;;4998107;28;21340;-49
2022/05/31 02:01:16;;;;;;;3.78;1.30;;;10.20;99.90;;;;;;5006365;28;20041;-47
2022/05/31 02:03:45;;;;;;;3.13;1.40;;;10.20;99.90;;;;;;5005803;28;20046;-50
2022/05/31 02:06:36;;;;;;;1.95;1.10;;;10.20;99.90;;;;;;5002819;28;20037;-47
2022/05/31 02:09:04;;;;;;;2.55;1.10;;;10.20;99.90;;;;;;5004100;28;20137;-49
2022/05/31 02:11:30;;;;;;;2.35;1.38;;;10.20;99.90;;;;;;5006007;28;20065;-49
2022/05/31 02:13:58;;;;;;;2.92;1.40;;;10.20;99.90;;;;;;5006535;28;20042;-44
2022/05/31 02:16:25;;;;;;;3.22;1.40;;;10.20;99.90;;;;;;4999403;28;20140;-49
2022/05/31 02:21:35;;;;;;;3.17;1.08;;;10.20;99.90;;;;;;5001437;28;20042;-48
2022/05/31 02:24:07;;;;;;;3.47;1.40;;;10.20;99.90;;;;;;5007000;28;20048;-46
2022/05/31 02:26:33;;;;;;;2.35;1.40;;;10.20;99.90;;;;;;5003878;28;20537;-48
2022/05/31 02:28:59;;;;;;;2.95;1.40;;;10.20;99.90;;;;;;5009739;28;20049;-42
2022/05/31 02:31:26;;;;;;;1.98;0.95;;;10.20;99.90;;;;;;5002249;28;20080;-49
2022/05/31 02:33:52;;;;;;;2.28;1.27;;;10.20;99.90;;;;;;5002254;28;20042;-50
2022/05/31 02:36:18;;;;;;;2.72;1.35;;;10.30;99.90;;;;;;5005665;28;20045;-43
2022/05/31 02:38:43;;;;;;;3.97;1.40;;;10.30;99.90;;;;;;4983224;28;20053;-47
2022/05/31 02:41:09;;;;;;;2.47;1.30;;;10.20;99.90;;;;;;5007755;28;20517;-45
2022/05/31 02:43:36;;;;;;;2.38;1.38;;;10.30;99.90;;;;;;5004975;28;20076;-50
2022/05/31 02:46:03;;;;;;;2.40;1.48;;;10.30;99.90;;;;;;5004193;28;20600;-49
2022/05/31 02:48:30;;;;;;;4.88;1.70;;;10.20;99.90;;;;;;5004879;28;20513;-49
2022/05/31 02:50:56;;;;;;;2.58;1.20;;;10.30;99.90;;;;;;4987270;28;20548;-50
2022/05/31 02:53:21;;;;;;;4.85;1.20;;;10.20;99.90;;;;;;5000871;28;20129;-50
2022/05/31 02:55:47;;;;;;;3.05;1.20;;;10.30;99.90;;;;;;5004714;28;20034;-48
2022/05/31 02:58:13;;;;;;;1.80;1.10;;;10.20;99.90;;;;;;5001134;28;20395;-51
2022/05/31 03:00:39;;;;;;;3.15;1.40;;;10.20;99.90;;;;;;5003825;28;20658;-43
2022/05/31 03:03:05;;;;;;;2.72;1.40;;;10.20;99.90;;;;;;5003252;28;20061;-45
2022/05/31 03:05:31;;;;;;;2.97;1.27;;;10.20;99.90;;;;;;5005844;28;20128;-49
2022/05/31 03:07:57;;;;;;;4.43;1.63;;;10.30;99.90;;;;;;5002914;28;20128;-52
2022/05/31 03:10:27;;;;;;;2.25;1.30;;;10.30;99.90;;;;;;5002647;28;20243;-49
2022/05/31 03:12:55;;;;;;;5.15;1.33;;;10.20;99.90;;;;;;5004458;28;20050;-47
2022/05/31 03:15:23;;;;;;;2.45;1.35;;;10.20;99.90;;;;;;4998723;28;20079;-44
2022/05/31 03:18:03;;;;;;;3.20;1.00;;;10.20;99.90;;;;;;4999320;28;20104;-43
2022/05/31 03:20:36;;;;;;;2.05;1.27;;;10.20;99.90;;;;;;5001136;28;20057;-49
2022/05/31 03:23:35;;;;;;;3.17;1.48;;;10.20;99.90;;;;;;5001438;28;20360;-47
2022/05/31 03:26:05;;;;;;;2.65;1.30;;;10.20;99.90;;;;;;4990870;28;20538;-49
2022/05/31 03:28:33;;;;;;;3.13;1.25;;;10.20;99.90;;;;;;5004316;28;20058;-50
2022/05/31 03:31:00;;;;;;;2.58;1.60;;;10.20;99.90;;;;;;5000228;28;20112;-51
2022/05/31 03:33:26;;;;;;;3.08;1.25;;;10.20;99.90;;;;;;5001711;28;20042;-49
2022/05/31 03:35:52;;;;;;;2.40;1.23;;;10.20;99.90;;;;;;4998642;28;20034;-48
2022/05/31 03:38:18;;;;;;;2.78;1.40;;;10.20;99.90;;;;;;5000787;28;20083;-42
2022/05/31 03:40:58;;;;;;;2.30;1.30;;;10.20;99.90;;;;;;5005597;28;20526;-50
2022/05/31 03:43:35;;;;;;;2.30;1.10;;;10.20;99.90;;;;;;4999970;28;20049;-49
2022/05/31 03:46:01;;;;;;;3.13;1.30;;;10.20;99.90;;;;;;5006883;28;20447;-46
2022/05/31 03:48:27;;;;;;;2.33;1.30;;;10.30;99.90;;;;;;5004695;28;20403;-49
2022/05/31 03:51:19;;;;;;;3.20;1.50;;;10.20;99.90;;;;;;5004561;28;20152;-50
2022/05/31 03:53:44;;;;;;;4.88;1.73;;;10.30;99.90;;;;;;4996264;28;20105;-47
2022/05/31 03:56:12;;;;;;;4.05;1.60;;;10.30;99.90;;;;;;5004282;28;20062;-50
2022/05/31 03:58:39;;;;;;;1.38;0.80;;;10.30;99.90;;;;;;4999192;28;20050;-46
2022/05/31 04:01:06;;;;;;;3.65;1.45;;;10.30;99.90;;;;;;5001729;28;20116;-47
2022/05/31 04:03:32;;;;;;;3.10;1.20;;;10.30;99.90;;;;;;5007238;28;20038;-47
2022/05/31 04:05:58;;;;;;;1.75;0.90;;;10.30;99.90;;;;;;4999125;28;20037;-47
2022/05/31 04:08:24;;;;;;;2.60;1.65;;;10.30;99.90;;;;;;5003847;28;20045;-44
2022/05/31 04:10:51;;;;;;;4.85;1.60;;;10.30;99.90;;;;;;5003722;28;20489;-46
2022/05/31 04:13:17;;;;;;;3.35;1.42;;;10.30;99.90;;;;;;5003211;28;20042;-50
2022/05/31 04:15:44;;;;;;;5.57;1.33;;;10.30;99.90;;;;;;4997650;28;20025;-50
2022/05/31 04:18:09;;;;;;;2.65;1.23;;;10.30;99.90;;;;;;5006908;28;20574;-50
2022/05/31 04:20:42;;;;;;;2.97;1.42;;;10.30;99.90;;;;;;5003950;28;20120;-46
2022/05/31 04:26:05;;;;;;;3.10;1.45;;;10.40;99.90;;;;;;5003643;28;20041;-48
2022/05/31 04:28:31;;;;;;;2.03;1.30;;;10.40;99.90;;;;;;5001835;28;20045;-47
2022/05/31 04:30:57;;;;;;;3.42;1.70;;;10.40;99.90;;;;;;5000756;28;20121;-52
2022/05/31 04:33:23;;;;;;;2.55;1.42;;;10.40;99.90;;;;;;5000597;28;20095;-47
2022/05/31 04:36:07;;;;;;;4.85;1.90;;;10.50;99.90;;;;;;5006895;28;20049;-52
2022/05/31 04:38:34;;;;;;;3.85;1.02;;;10.50;99.90;;;;;;5001114;28;20050;-51
2022/05/31 04:41:00;;;;;;;3.22;1.10;;;10.50;99.90;;;;;;5005432;28;20116;-49
2022/05/31 04:43:26;;;;;;;4.18;1.70;;;10.50;99.90;;;;;;5003436;28;20120;-49
2022/05/31 04:45:51;;;;;;;3.00;1.25;;;10.60;99.90;;;;;;4999580;28;20042;-47
2022/05/31 04:48:17;;;;;;;3.67;1.10;;;10.60;99.90;;;;;;4999788;28;20134;-50
2022/05/31 04:50:42;;;;;;;2.42;1.33;;;10.60;99.90;;;;;;5003803;28;20049;-49
2022/05/31 04:53:08;;;;;;;2.25;1.50;;;10.60;99.90;;;;;;5002447;28;20403;-44
2022/05/31 04:55:34;;;;;;;3.42;1.20;;;10.60;99.90;;;;;;4998847;28;20129;-47
2022/05/31 04:57:59;;;;;;;2.55;1.00;;;10.70;99.90;;;;;;5000809;28;20549;-50
2022/05/31 05:00:25;;;;;;;3.05;0.90;;;10.70;99.90;;;;;;5000822;28;20041;-45
2022/05/31 05:02:51;;;;;;;1.85;1.10;;;10.70;99.90;;;;;;5006577;28;20569;-48
2022/05/31 05:05:16;;;;;;;3.33;1.00;;;10.70;99.90;;;;;;5004105;28;20471;-50
2022/05/31 05:07:42;;;;;;;3.13;1.25;;;10.80;99.90;;;;;;5004465;28;20491;-45
2022/05/31 05:10:09;;;;;;;3.88;1.30;;;10.80;99.90;;;;;;5002080;28;20467;-49
2022/05/31 05:12:36;;;;;;;1.95;0.93;;;10.90;99.90;;;;;;5003802;28;20054;-47
2022/05/31 05:15:02;;;;;;;3.00;1.27;;;10.90;99.90;;;;;;5005820;28;20045;-49
2022/05/31 05:17:28;;;;;;;3.95;1.73;;;11.00;99.90;;;;;;5008552;28;20038;-47
2022/05/31 05:19:53;;;;;;;4.65;1.30;;;11.00;99.90;;;;;;5006580;28;20042;-50
2022/05/31 05:22:19;;;;;;;2.42;1.30;;;11.10;99.90;;;;;;5006611;28;20410;-49
2022/05/31 05:24:45;;;;;;;5.45;1.67;;;11.10;99.90;;;;;;5010300;28;20440;-53
2022/05/31 05:27:10;;;;;;;2.22;1.13;;;11.20;99.90;;;;;;5006611;28;20049;-46
2022/05/31 05:32:20;;;;;;;3.70;1.65;;;11.20;99.90;;;;;;5007821;28;20042;-42
2022/05/31 05:34:53;;;;;;;4.35;1.60;;;11.20;99.90;;;;;;5006173;28;20049;-50
2022/05/31 05:37:20;;;;;;;2.75;1.40;;;11.30;99.90;;;;;;5004429;28;20195;-51
2022/05/31 05:39:45;;;;;;;3.40;1.40;;;11.30;99.90;;;;;;4999837;28;20038;-42
2022/05/31 05:42:15;;;;;;;3.72;1.55;;;11.30;99.90;;;;;;5001934;28;20046;-50
2022/05/31 05:44:41;;;;;;;2.65;1.40;;;11.40;99.90;;;;;;5006186;28;20397;-47
2022/05/31 05:47:08;;;;;;;3.78;1.52;;;11.40;99.90;;;;;;5007017;28;20082;-43
2022/05/31 05:49:34;;;;;;;3.55;1.40;;;11.50;99.90;;;;;;5009726;28;20038;-47
2022/05/31 05:52:01;;;;;;;4.05;1.45;;;11.50;99.90;;;;;;5004021;28;20041;-48
2022/05/31 05:54:27;;;;;;;4.75;1.70;;;11.50;99.90;;;;;;5002839;28;20053;-43
2022/05/31 05:56:53;;;;;;;4.10;2.58;;;11.60;99.90;;;;;;5004711;28;20042;-49
2022/05/31 05:59:20;;;;;;;3.22;1.08;;;11.60;99.90;;;;;;5006781;28;20458;-46
2022/05/31 06:01:54;;;;;;;3.42;1.40;;;11.70;99.90;;;;;;4986668;28;20379;-49
2022/05/31 06:04:28;;;;;;;4.10;1.40;;;11.70;99.90;;;;;;5003995;28;20494;-49
2022/05/31 06:07:20;;;;;;;3.38;1.67;;;11.80;99.90;;;;;;5004110;28;20069;-47
2022/05/31 06:09:59;;;;;;;3.80;1.50;;;11.90;99.60;;;;;;4997324;28;20064;-41
2022/05/31 06:12:29;;;;;;;5.45;1.80;;;11.90;99.70;;;;;;5003239;28;20085;-45
2022/05/31 06:15:01;;;;;;;4.35;1.77;;;11.90;99.40;;;;;;5004892;28;20081;-44
2022/05/31 06:17:33;;;;;;;3.45;1.85;;;12.00;99.40;;;;;;4997805;28;20454;-51
2022/05/31 06:20:03;;;;;;;4.38;2.00;;;12.00;98.80;;;;;;5005327;28;20111;-48
2022/05/31 06:22:30;;;;;;;5.03;1.88;;;12.10;98.80;;;;;;5000358;28;20038;-49
2022/05/31 06:24:58;;;;;;;3.20;1.70;;;12.10;99.10;;;;;;5003757;28;20065;-46
2022/05/31 06:27:24;;;;;;;4.90;2.08;;;12.20;99.10;;;;;;5005312;28;20049;-46
2022/05/31 06:29:49;;;;;;;5.15;1.88;;;12.20;98.20;;;;;;5002790;28;20037;-47
2022/05/31 06:32:16;;;;;;;2.90;1.58;;;12.20;98.10;;;;;;4997430;28;20376;-48
2022/05/31 06:34:42;;;;;;;5.30;1.67;;;12.30;98.40;;;;;;4996329;28;20034;-48
2022/05/31 06:37:11;;;;;;;3.22;1.70;;;12.40;98.20;;;;;;5004553;28;20033;-45
2022/05/31 06:39:38;;;;;;;3.55;1.60;;;12.60;98.00;;;;;;5001637;28;20488;-46
2022/05/31 06:42:05;;;;;;;3.88;1.90;;;12.80;97.60;;;;;;5003229;28;20050;-51
2022/05/31 06:44:35;;;;;;;3.72;1.60;;;13.00;97.30;;;;;;5004060;28;20049;-50
2022/05/31 06:47:01;;;;;;;4.38;1.80;;;13.10;95.80;;;;;;5000246;28;20037;-47
2022/05/31 06:49:29;;;;;;;4.18;1.90;;;13.20;95.70;;;;;;5005038;28;20076;-43
2022/05/31 06:57:23;;;;;;;5.38;1.77;;;13.50;94.80;;;;;;5001528;28;20096;-46
2022/05/31 06:59:49;;;;;;;2.85;1.90;;;13.60;94.70;;;;;;5011162;28;20184;-50
2022/05/31 07:02:14;;;;;;;3.55;1.80;;;13.70;93.90;;;;;;5009991;28;20515;-48
2022/05/31 07:04:40;;;;;;;4.97;2.10;;;13.80;93.60;;;;;;5001141;28;20518;-52
2022/05/31 07:07:06;;;;;;;4.70;1.83;;;13.90;93.20;;;;;;5002770;28;20046;-49
2022/05/31 07:09:34;;;;;;;3.47;2.00;;;14.00;92.60;;;;;;5004099;28;20463;-47
2022/05/31 07:12:00;;;;;;;5.88;2.13;;;14.10;91.70;;;;;;4999018;28;20479;-47
2022/05/31 07:14:27;;;;;;;5.93;2.33;;;14.20;91.70;;;;;;5008149;28;20053;-47
2022/05/31 07:16:52;;;;;;;5.00;2.00;;;14.20;91.20;;;;;;5001567;28;20139;-47
2022/05/31 07:19:18;;;;;;;6.18;2.50;;;14.30;90.60;;;;;;5005267;28;20499;-50
2022/05/31 07:21:44;;;;;;;3.60;1.92;;;14.40;90.20;;;;;;4995645;28;20459;-47
2022/05/31 07:24:11;;;;;;;5.40;2.00;;;14.40;89.90;;;;;;5008997;28;20283;-50
2022/05/31 07:26:38;;;;;;;3.35;1.95;;;14.50;90.00;;;;;;5006520;28;20064;-45
2022/05/31 07:29:04;;;;;;;6.15;2.20;;;14.60;89.30;;;;;;5003603;28;20149;-48
2022/05/31 07:31:30;;;;;;;4.25;2.40;;;14.70;87.60;;;;;;4999390;28;20129;-50
2022/05/31 07:33:56;;;;;;;3.08;1.90;;;14.80;86.30;;;;;;5001316;28;20201;-44
2022/05/31 07:36:22;;;;;;;4.25;2.03;;;14.90;85.50;;;;;;5002740;28;20038;-46
2022/05/31 07:38:47;;;;;;;3.97;2.25;;;14.90;83.90;;;;;;5002684;28;20121;-46
2022/05/31 07:41:13;;;;;;;4.72;2.00;;;15.00;84.30;;;;;;5006154;28;20034;-50
2022/05/31 07:43:39;;;;;;;5.10;2.60;;;15.10;83.30;;;;;;5005547;28;20037;-51
2022/05/31 07:46:07;;;;;;;6.43;2.58;;;15.30;84.00;;;;;;5001657;28;20030;-47
2022/05/31 07:48:34;;;;;;;5.35;2.22;;;15.40;80.10;;;;;;5003579;28;20037;-49
2022/05/31 07:51:00;;;;;;;4.95;2.17;;;15.50;78.50;;;;;;5029940;28;20068;-49
2022/05/31 07:53:26;;;;;;;5.20;2.58;;;15.60;76.70;;;;;;4999896;28;20461;-51
2022/05/31 07:56:00;;;;;;;7.38;2.55;;;15.70;76.50;;;;;;4999498;28;20034;-51
2022/05/31 07:58:32;;;;;;;3.75;2.03;;;15.70;73.00;;;;;;4998442;28;20069;-40
2022/05/31 08:01:00;;;;;;;4.47;2.28;;;15.80;74.50;;;;;;5002843;28;20467;-47
2022/05/31 08:03:26;;;;;;;11.48;2.67;;;15.90;69.70;;;;;;5000981;28;20045;-47
2022/05/31 08:05:51;;;;;;;5.15;2.30;;;16.00;70.70;;;;;;5000645;28;20041;-45
2022/05/31 08:08:17;;;;;;;5.43;2.13;;;16.10;69.50;;;;;;5001615;28;20088;-49
2022/05/31 08:10:43;;;;;;;5.55;2.22;;;16.10;68.70;;;;;;4996565;28;20108;-51
2022/05/31 08:13:09;;;;;;;3.45;1.70;;;16.30;68.10;;;;;;5005651;28;20117;-48
2022/05/31 08:15:35;;;;;;;3.10;1.55;;;16.30;67.20;;;;;;5000235;28;20049;-45
2022/05/31 08:18:01;;;;;;;3.55;1.73;;;16.50;66.80;;;;;;5001247;28;20044;-48
2022/05/31 08:20:27;;;;;;;5.00;2.10;;;16.60;67.40;;;;;;4997521;28;20038;-46
2022/05/31 08:22:52;;;;;;;4.32;1.58;;;16.80;66.60;;;;;;5001217;28;20459;-48
2022/05/31 08:25:18;;;;;;;4.65;2.60;;;17.00;64.30;;;;;;4998657;28;20048;-47
2022/05/31 08:27:44;;;;;;;5.72;2.10;;;17.10;61.20;;;;;;5007357;28;20486;-46
2022/05/31 08:30:10;;;;;;;4.70;1.92;;;17.10;60.90;;;;;;5002741;28;20041;-47
2022/05/31 08:32:36;;;;;;;5.80;2.00;;;17.20;60.00;;;;;;5006784;28;20038;-47
2022/05/31 08:35:03;;;;;;;6.55;2.10;;;17.40;60.60;;;;;;4999841;28;20116;-48
2022/05/31 08:37:30;;;;;;;6.00;2.25;;;17.50;58.90;;;;;;4999483;28;20388;-49
2022/05/31 08:39:57;;;;;;;5.75;2.40;;;17.50;58.10;;;;;;5003883;28;20129;-47
2022/05/31 08:42:48;;;;;;;6.03;2.10;;;17.50;57.90;;;;;;5000714;28;20099;-48
2022/05/31 08:45:40;;;;;;;4.38;2.30;;;17.50;55.40;;;;;;5000848;28;20045;-48
2022/05/31 08:48:31;;;;;;;4.90;1.87;;;17.60;53.10;;;;;;4995211;28;20057;-50
2022/05/31 08:56:59;;;;;;;4.70;1.98;;;17.50;53.50;;;;;;5001306;28;20049;-47
2022/05/31 08:59:45;;;;;;;5.15;1.83;;;17.30;52.20;;;;;;4997279;28;20137;-45
2022/05/31 09:02:34;;;;;;;2.78;1.52;;;17.20;52.00;;;;;;4985582;28;20502;-47
2022/05/31 09:05:05;;;;;;;2.92;1.50;;;17.20;53.10;;;;;;5003358;28;20042;-50
2022/05/31 09:07:39;;;;;;;3.58;1.60;;;17.20;53.10;;;;;;5000864;28;20399;-46
2022/05/31 09:10:24;;;;;;;3.08;1.50;;;17.20;52.50;;;;;;4996714;28;20133;-44
2022/05/31 09:12:59;;;;;;;5.78;1.83;;;17.20;51.60;;;;;;5003481;28;20056;-46
2022/05/31 09:15:31;;;;;;;3.47;2.15;;;17.30;51.90;;;;;;4998264;28;20037;-46
2022/05/31 09:18:35;;;;;;;4.57;2.30;;;17.40;52.70;;;;;;5018149;28;20489;-46
2022/05/31 09:21:04;;;;;;;4.47;1.60;;;17.50;52.20;;;;;;4986557;28;20120;-49
2022/05/31 09:23:38;;;;;;;3.88;1.63;;;17.50;51.40;;;;;;4991993;28;20407;-48
2022/05/31 09:26:12;;;;;;;3.33;1.33;;;17.60;51.10;;;;;;4998733;28;20145;-48
2022/05/31 09:29:08;;;;;;;2.42;1.42;;;17.70;51.90;;;;;;4997379;28;20380;-49
2022/05/31 09:31:42;;;;;;;5.57;1.55;;;17.70;49.50;;;;;;5018237;28;20076;-44
2022/05/31 09:34:46;;;;;;;4.15;1.75;;;17.70;51.10;;;;;;5001201;28;20428;-45
2022/05/31 09:37:43;;;;;;;2.67;1.52;;;17.70;50.10;;;;;;4999949;28;20125;-50
2022/05/31 09:40:37;;;;;;;3.10;1.63;;;17.70;51.30;;;;;;5001646;28;20050;-50
2022/05/31 09:43:25;;;;;;;4.13;1.48;;;17.60;50.50;;;;;;4981752;28;20042;-41
2022/05/31 09:46:09;;;;;;;4.70;1.38;;;17.50;50.10;;;;;;5005731;28;20072;-49
2022/05/31 09:48:47;;;;;;;6.35;1.80;;;17.30;50.70;;;;;;5006345;28;20060;-48
2022/05/31 09:51:37;;;;;;;3.90;2.03;;;17.30;52.00;;;;;;5010964;28;20041;-43
2022/05/31 09:57:06;;;;;;;4.60;1.77;;;17.00;52.70;;;;;;5002507;28;20050;-50
2022/05/31 09:59:39;;;;;;;8.13;2.20;;;16.80;52.50;;;;;;5005934;28;20480;-50
2022/05/31 10:02:30;;;;;;;3.92;1.65;;;16.60;53.20;;;;;;5003729;28;20030;-49
2022/05/31 10:05:16;;;;;;;4.47;1.92;;;16.50;52.30;;;;;;5000458;28;20672;-46
2022/05/31 10:07:43;;;;;;;6.60;2.30;;;16.50;52.50;;;;;;5004351;28;20584;-50
2022/05/31 10:10:15;;;;;;;7.53;2.08;;;16.50;53.40;;;;;;5005704;28;20114;-43
2022/05/31 10:12:59;;;;;;;3.30;1.83;;;16.50;53.40;;;;;;5002464;28;20685;-45
2022/05/31 10:15:45;;;;;;;4.85;2.20;;;16.40;54.20;;;;;;5009142;28;20490;-50
2022/05/31 10:18:31;;;;;;;5.85;2.78;;;16.40;55.00;;;;;;5008441;28;20041;-49
2022/05/31 10:21:02;;;;;;;8.18;3.38;;;16.40;56.00;;;;;;5009076;28;20487;-50
2022/05/31 10:23:43;;;;;;;5.43;3.22;;;16.40;56.50;;;;;;5005237;28;20042;-45
2022/05/31 10:26:23;;;;;;;6.00;2.70;;;16.40;56.70;;;;;;5008040;28;20050;-49
2022/05/31 10:29:20;;;;;;;6.70;2.70;;;16.40;56.80;;;;;;5003239;28;20042;-50
2022/05/31 10:31:47;;;;;;;8.93;3.05;;;16.50;56.80;;;;;;5005506;28;20434;-46
2022/05/31 10:34:31;;;;;;;5.88;2.65;;;16.60;57.50;;;;;;5006145;28;20103;-49
2022/05/31 10:36:59;;;;;;;7.07;2.80;;;16.70;56.70;;;;;;5002450;28;20063;-49
2022/05/31 10:39:31;;;;;;;4.57;2.55;;;16.80;56.70;;;;;;4999329;28;20069;-49
2022/05/31 10:42:00;;;;;;;4.55;2.85;;;16.80;56.60;;;;;;5009548;28;20085;-48
2022/05/31 10:44:32;;;;;;;5.95;2.85;;;17.00;55.70;;;;;;5003613;28;20687;-47
2022/05/31 10:47:13;;;;;;;5.97;2.33;;;17.20;54.70;;;;;;5002050;28;20167;-46
2022/05/31 10:49:41;;;;;;;4.82;2.30;;;17.30;54.80;;;;;;5008718;28;20479;-47
2022/05/31 10:52:31;;;;;;;4.85;2.42;;;17.40;54.20;;;;;;5005621;28;20069;-49
2022/05/31 10:55:04;;;;;;;4.85;2.55;;;17.50;53.30;;;;;;5009558;28;20167;-51
2022/05/31 10:57:32;;;;;;;6.00;3.00;;;17.60;52.50;;;;;;5010354;28;20092;-52
2022/05/31 11:00:15;;;;;;;6.90;2.90;;;17.60;52.10;;;;;;5005410;28;20248;-50
2022/05/31 11:02:56;;;;;;;5.70;3.03;;;17.60;52.20;;;;;;5006470;28;20034;-48
2022/05/31 11:05:43;;;;;;;5.28;3.03;;;17.60;52.70;;;;;;5016304;28;20487;-50
2022/05/31 11:11:39;;;;;;;4.32;2.88;;;17.50;53.30;;;;;;4999458;28;20065;-47
2022/05/31 11:14:30;;;;;;;7.15;3.47;;;17.40;54.10;;;;;;5001626;28;20046;-48
2022/05/31 11:17:04;;;;;;;6.18;3.05;;;17.50;53.90;;;;;;5002172;28;20077;-46
2022/05/31 11:20:04;;;;;;;5.10;2.70;;;17.50;53.50;;;;;;4994813;28;20557;-50
2022/05/31 11:22:51;;;;;;;4.63;2.42;;;17.50;53.40;;;;;;5004314;28;20484;-51
2022/05/31 11:25:33;;;;;;;5.82;2.30;;;17.60;53.30;;;;;;5007026;28;20045;-49
2022/05/31 11:28:26;;;;;;;7.50;3.53;;;17.80;52.80;;;;;;5005929;28;20051;-49
2022/05/31 11:30:54;;;;;;;;;;;17.90;52.60;;;;;;5022038;28;20046;-46
2022/05/31 11:33:32;;;;;;;6.18;2.88;;;18.00;51.20;;;;;;5005354;28;20062;-46
2022/05/31 11:36:16;;;;;;;5.25;2.80;;;18.10;52.60;;;;;;5003856;28;20046;-47
2022/05/31 11:39:12;;;;;;;5.47;2.30;;;18.10;50.50;;;;;;5018559;28;20499;-50
2022/05/31 11:41:53;;;;;;;5.47;2.90;;;18.00;50.70;;;;;;5001538;28;20053;-46
2022/05/31 11:44:31;;;;;;;5.93;2.95;;;18.00;51.10;;;;;;5013310;28;20042;-45
2022/05/31 11:47:20;;;;;;;8.55;2.90;;;18.00;51.80;;;;;;4999790;28;20680;-46
2022/05/31 11:50:06;;;;;;;5.30;2.75;;;18.00;51.30;;;;;;4991803;28;20045;-47
2022/05/31 11:52:37;;;;;;;7.10;2.40;;;18.10;50.90;;;;;;5002556;28;20060;-50
2022/05/31 11:55:31;;;;;;;4.57;2.70;;;18.20;50.10;;;;;;5002536;28;20045;-49
2022/05/31 11:58:33;;;;;;;5.22;2.13;;;18.30;49.20;;;;;;5002123;28;20124;-45
2022/05/31 12:01:02;;;;;;;5.25;2.33;;;18.50;49.60;;;;;;5003152;28;20093;-44
2022/05/31 12:03:39;;;;;;;5.75;2.58;;;18.70;50.50;;;;;;5003032;28;20042;-49
2022/05/31 12:06:18;;;;;;;3.75;2.05;;;19.00;48.00;;;;;;5005735;28;20042;-46
2022/05/31 12:09:13;;;;;;;4.63;2.30;;;19.40;46.80;;;;;;5006182;28;20045;-45
2022/05/31 12:11:42;;;;;;;4.50;1.90;;;19.60;45.20;;;;;;5005837;28;20206;-48
2022/05/31 12:14:11;;;;;;;5.03;2.30;;;19.80;46.10;;;;;;5019374;28;20136;-48
2022/05/31 12:16:38;;;;;;;8.43;1.88;;;19.90;44.40;;;;;;4998335;28;20046;-51
2022/05/31 12:19:18;;;;;;;5.03;1.65;;;19.70;44.30;;;;;;5003342;28;20038;-46
2022/05/31 12:22:00;;;;;;;4.40;2.22;;;19.60;43.20;;;;;;5002330;28;20033;-48
2022/05/31 12:24:31;;;;;;;6.22;2.10;;;19.70;43.70;;;;;;4999721;28;20053;-47
2022/05/31 12:27:10;;;;;;;4.82;1.80;;;20.00;43.30;;;;;;4999533;28;20056;-49
2022/05/31 12:30:03;;;;;;;2.88;1.52;;;20.30;43.80;;;;;;5003019;28;20473;-47
2022/05/31 12:32:35;;;;;;;2.58;1.45;;;20.40;40.20;;;;;;4989848;28;20093;-43
2022/05/31 12:35:05;;;;;;;6.25;1.85;;;20.30;42.10;;;;;;5001722;28;20038;-49
2022/05/31 12:38:03;;;;;;;3.17;1.80;;;20.30;41.90;;;;;;4995891;28;20162;-46
2022/05/31 12:40:34;;;;;;;4.50;1.85;;;20.20;40.60;;;;;;5003169;28;20038;-49
2022/05/31 12:43:03;;;;;;;3.50;1.77;;;19.80;41.70;;;;;;5002845;28;20038;-50
2022/05/31 12:45:37;;;;;;;3.67;1.67;;;19.70;42.50;;;;;;4997689;28;20486;-43
2022/05/31 12:48:15;;;;;;;4.47;2.05;;;19.70;42.90;;;;;;5002119;28;20057;-44
2022/05/31 12:50:49;;;;;;;4.43;2.13;;;19.60;42.40;;;;;;5005328;28;20041;-43
2022/05/31 12:53:23;;;;;;;4.40;2.30;;;19.40;41.90;;;;;;4999243;28;20124;-46
2022/05/31 12:55:58;;;;;;;4.20;2.10;;;19.10;42.50;;;;;;5001289;28;20045;-46
2022/05/31 12:58:30;;;;;;;5.25;2.10;;;18.90;43.20;;;;;;4999512;28;20460;-48
2022/05/31 13:01:16;;;;;;;5.57;2.10;;;18.80;43.30;;;;;;4996990;28;20065;-50
2022/05/31 13:03:51;;;;;;;5.43;1.88;;;18.70;43.70;;;;;;4997739;28;20554;-47
2022/05/31 13:06:29;;;;;;;4.35;1.60;;;18.80;44.60;;;;;;5002766;28;20180;-49
2022/05/31 13:08:59;;;;;;;4.22;1.85;;;18.90;45.00;;;;;;5001537;28;20042;-46
2022/05/31 13:19:57;;;;;;;4.90;2.28;;;18.90;43.00;;;;;;5000459;28;20105;-48
2022/05/31 13:22:24;;;;;;;5.50;2.33;;;18.90;44.00;;;;;;5004451;28;20041;-49
2022/05/31 13:25:02;;;;;;;7.40;2.55;;;19.00;43.80;;;;;;5006258;28;20435;-45
2022/05/31 13:27:31;;;;;;;7.63;2.30;;;19.00;42.90;;;;;;5006712;28;20037;-50
2022/05/31 13:30:18;;;;;;;4.88;2.45;;;18.90;43.20;;;;;;5009824;28;20072;-45
2022/05/31 13:32:44;;;;;;;3.30;2.17;;;18.80;42.50;;;;;;5007937;28;20467;-48
2022/05/31 13:35:29;;;;;;;4.32;2.10;;;18.70;43.40;;;;;;5002088;28;20042;-45
2022/05/31 13:38:05;;;;;;;3.92;1.60;;;18.60;43.70;;;;;;5004717;28;20440;-49
2022/05/31 13:40:46;;;;;;;7.47;2.45;;;18.60;44.30;;;;;;5004966;28;20041;-50
2022/05/31 13:43:38;;;;;;;5.75;2.85;;;18.60;44.50;;;;;;5006936;28;20034;-47
2022/05/31 13:46:17;;;;;;;6.03;2.72;;;18.70;43.90;;;;;;5009046;28;20046;-49
2022/05/31 13:48:48;;;;;;;4.32;2.00;;;18.70;44.60;;;;;;4999571;28;20045;-46